sensor_id;sensor_type;location;lat;lon;timestamp;temperature;humidity
4433;DHT22;2229;48.708;9.706;2023-07-13T00:02:25;21.70;84.60
4433;DHT22;2229;48.708;9.706;2023-07-13T00:04:52;21.70;84.50
4433;DHT22;2229;48.708;9.706;2023-07-13T00:07:19;21.70;84.30
4433;DHT22;2229;48.708;9.706;2023-07-13T00:09:46;21.70;84.20
4433;DHT22;2229;48.708;9.706;2023-07-13T00:12:25;21.70;84.30
4433;DHT22;2229;48.708;9.706;2023-07-13T00:14:53;21.70;84.20
4433;DHT22;2229;48.708;9.706;2023-07-13T00:17:21;21.60;84.00
4433;DHT22;2229;48.708;9.706;2023-07-13T00:19:49;21.60;84.00
4433;DHT22;2229;48.708;9.706;2023-07-13T00:22:16;21.60;84.10
4433;DHT22;2229;48.708;9.706;2023-07-13T00:24:43;21.50;84.10
4433;DHT22;2229;48.708;9.706;2023-07-13T00:27:11;21.50;84.20
4433;DHT22;2229;48.708;9.706;2023-07-13T00:29:38;21.40;84.20
4433;DHT22;2229;48.708;9.706;2023-07-13T00:32:06;21.40;84.30
4433;DHT22;2229;48.708;9.706;2023-07-13T00:34:37;21.30;84.30
4433;DHT22;2229;48.708;9.706;2023-07-13T00:37:05;21.30;84.40
4433;DHT22;2229;48.708;9.706;2023-07-13T00:39:34;21.30;84.50
4433;DHT22;2229;48.708;9.706;2023-07-13T00:42:03;21.20;84.60
4433;DHT22;2229;48.708;9.706;2023-07-13T00:44:31;21.20;84.80
4433;DHT22;2229;48.708;9.706;2023-07-13T00:46:58;21.20;84.80
4433;DHT22;2229;48.708;9.706;2023-07-13T00:49:27;21.20;84.70
4433;DHT22;2229;48.708;9.706;2023-07-13T00:51:58;21.20;84.90
4433;DHT22;2229;48.708;9.706;2023-07-13T00:54:30;21.30;85.00
4433;DHT22;2229;48.708;9.706;2023-07-13T00:57:02;21.30;85.00
4433;DHT22;2229;48.708;9.706;2023-07-13T00:59:30;21.30;85.10
4433;DHT22;2229;48.708;9.706;2023-07-13T01:01:58;21.30;84.90
4433;DHT22;2229;48.708;9.706;2023-07-13T01:04:26;21.30;84.50
4433;DHT22;2229;48.708;9.706;2023-07-13T01:06:55;21.30;84.50
4433;DHT22;2229;48.708;9.706;2023-07-13T01:09:25;21.30;84.40
4433;DHT22;2229;48.708;9.706;2023-07-13T01:11:52;21.30;84.30
4433;DHT22;2229;48.708;9.706;2023-07-13T01:14:19;21.30;84.20
4433;DHT22;2229;48.708;9.706;2023-07-13T01:16:47;21.30;84.00
4433;DHT22;2229;48.708;9.706;2023-07-13T01:19:23;21.20;83.40
4433;DHT22;2229;48.708;9.706;2023-07-13T01:22:04;21.20;82.40
4433;DHT22;2229;48.708;9.706;2023-07-13T01:24:35;21.20;81.30
4433;DHT22;2229;48.708;9.706;2023-07-13T01:27:03;21.10;81.10
4433;DHT22;2229;48.708;9.706;2023-07-13T01:29:33;21.10;81.80
4433;DHT22;2229;48.708;9.706;2023-07-13T01:32:00;21.10;82.70
4433;DHT22;2229;48.708;9.706;2023-07-13T01:34:28;21.00;82.90
4433;DHT22;2229;48.708;9.706;2023-07-13T01:36:55;21.00;83.00
4433;DHT22;2229;48.708;9.706;2023-07-13T01:39:23;21.00;83.10
4433;DHT22;2229;48.708;9.706;2023-07-13T01:41:51;21.00;82.90
4433;DHT22;2229;48.708;9.706;2023-07-13T01:44:20;20.90;82.50
4433;DHT22;2229;48.708;9.706;2023-07-13T01:46:47;20.90;82.50
4433;DHT22;2229;48.708;9.706;2023-07-13T01:49:14;20.90;82.40
4433;DHT22;2229;48.708;9.706;2023-07-13T01:51:42;20.80;82.40
4433;DHT22;2229;48.708;9.706;2023-07-13T01:54:10;20.80;82.50
4433;DHT22;2229;48.708;9.706;2023-07-13T01:56:39;20.70;81.50
4433;DHT22;2229;48.708;9.706;2023-07-13T01:59:08;20.60;80.90
4433;DHT22;2229;48.708;9.706;2023-07-13T02:01:35;20.60;80.70
4433;DHT22;2229;48.708;9.706;2023-07-13T02:04:02;20.50;81.30
4433;DHT22;2229;48.708;9.706;2023-07-13T02:06:33;20.50;81.30
4433;DHT22;2229;48.708;9.706;2023-07-13T02:09:00;20.40;80.50
4433;DHT22;2229;48.708;9.706;2023-07-13T02:11:27;20.40;80.30
4433;DHT22;2229;48.708;9.706;2023-07-13T02:14:01;20.40;80.20
4433;DHT22;2229;48.708;9.706;2023-07-13T02:16:29;20.30;80.10
4433;DHT22;2229;48.708;9.706;2023-07-13T02:18:56;20.20;80.00
4433;DHT22;2229;48.708;9.706;2023-07-13T02:21:25;20.20;80.20
4433;DHT22;2229;48.708;9.706;2023-07-13T02:23:53;20.20;80.50
4433;DHT22;2229;48.708;9.706;2023-07-13T02:26:20;20.10;80.60
4433;DHT22;2229;48.708;9.706;2023-07-13T02:28:47;20.00;80.70
4433;DHT22;2229;48.708;9.706;2023-07-13T02:31:16;19.90;80.90
4433;DHT22;2229;48.708;9.706;2023-07-13T02:33:45;19.90;81.30
4433;DHT22;2229;48.708;9.706;2023-07-13T02:36:12;19.90;81.50
4433;DHT22;2229;48.708;9.706;2023-07-13T02:38:44;19.80;81.70
4433;DHT22;2229;48.708;9.706;2023-07-13T02:41:11;19.80;81.80
4433;DHT22;2229;48.708;9.706;2023-07-13T02:43:39;19.70;82.00
4433;DHT22;2229;48.708;9.706;2023-07-13T02:46:08;19.70;82.30
4433;DHT22;2229;48.708;9.706;2023-07-13T02:48:38;19.70;82.50
4433;DHT22;2229;48.708;9.706;2023-07-13T02:51:06;19.60;82.40
4433;DHT22;2229;48.708;9.706;2023-07-13T02:53:34;19.60;82.40
4433;DHT22;2229;48.708;9.706;2023-07-13T02:56:02;19.60;82.60
4433;DHT22;2229;48.708;9.706;2023-07-13T02:58:29;19.60;82.70
4433;DHT22;2229;48.708;9.706;2023-07-13T03:00:57;19.60;82.90
4433;DHT22;2229;48.708;9.706;2023-07-13T03:03:26;19.50;82.80
4433;DHT22;2229;48.708;9.706;2023-07-13T03:06:01;19.60;83.00
4433;DHT22;2229;48.708;9.706;2023-07-13T03:08:37;19.60;83.20
4433;DHT22;2229;48.708;9.706;2023-07-13T03:11:06;19.60;83.40
4433;DHT22;2229;48.708;9.706;2023-07-13T03:13:37;19.60;84.30
4433;DHT22;2229;48.708;9.706;2023-07-13T03:16:05;19.60;83.60
4433;DHT22;2229;48.708;9.706;2023-07-13T03:18:33;19.50;83.60
4433;DHT22;2229;48.708;9.706;2023-07-13T03:21:05;19.50;83.70
4433;DHT22;2229;48.708;9.706;2023-07-13T03:23:32;19.50;83.60
4433;DHT22;2229;48.708;9.706;2023-07-13T03:26:05;19.40;83.60
4433;DHT22;2229;48.708;9.706;2023-07-13T03:28:33;19.40;83.70
4433;DHT22;2229;48.708;9.706;2023-07-13T03:31:04;19.40;83.90
4433;DHT22;2229;48.708;9.706;2023-07-13T03:33:32;19.30;84.00
4433;DHT22;2229;48.708;9.706;2023-07-13T03:35:59;19.30;83.90
4433;DHT22;2229;48.708;9.706;2023-07-13T03:38:28;19.20;83.90
4433;DHT22;2229;48.708;9.706;2023-07-13T03:40:55;19.10;84.00
4433;DHT22;2229;48.708;9.706;2023-07-13T03:43:23;19.10;84.50
4433;DHT22;2229;48.708;9.706;2023-07-13T03:45:52;19.00;84.70
4433;DHT22;2229;48.708;9.706;2023-07-13T03:48:20;19.00;85.10
4433;DHT22;2229;48.708;9.706;2023-07-13T03:50:48;18.90;85.30
4433;DHT22;2229;48.708;9.706;2023-07-13T03:53:16;18.90;85.30
4433;DHT22;2229;48.708;9.706;2023-07-13T03:55:46;18.90;85.30
4433;DHT22;2229;48.708;9.706;2023-07-13T03:58:25;18.90;85.30
4433;DHT22;2229;48.708;9.706;2023-07-13T04:00:56;18.90;84.90
4433;DHT22;2229;48.708;9.706;2023-07-13T04:03:24;18.90;84.70
4433;DHT22;2229;48.708;9.706;2023-07-13T04:05:55;18.90;84.60
4433;DHT22;2229;48.708;9.706;2023-07-13T04:08:26;19.00;84.40
4433;DHT22;2229;48.708;9.706;2023-07-13T04:10:56;19.00;84.30
4433;DHT22;2229;48.708;9.706;2023-07-13T04:13:24;19.00;84.40
4433;DHT22;2229;48.708;9.706;2023-07-13T04:15:52;19.00;84.90
4433;DHT22;2229;48.708;9.706;2023-07-13T04:18:20;19.10;85.20
4433;DHT22;2229;48.708;9.706;2023-07-13T04:20:47;19.10;85.30
4433;DHT22;2229;48.708;9.706;2023-07-13T04:23:15;19.10;86.20
4433;DHT22;2229;48.708;9.706;2023-07-13T04:25:43;19.10;85.60
4433;DHT22;2229;48.708;9.706;2023-07-13T04:28:12;19.10;85.70
4433;DHT22;2229;48.708;9.706;2023-07-13T04:30:41;19.10;85.80
4433;DHT22;2229;48.708;9.706;2023-07-13T04:33:08;19.10;86.60
4433;DHT22;2229;48.708;9.706;2023-07-13T04:35:36;19.00;85.90
4433;DHT22;2229;48.708;9.706;2023-07-13T04:38:03;19.10;86.20
4433;DHT22;2229;48.708;9.706;2023-07-13T04:40:30;19.10;86.40
4433;DHT22;2229;48.708;9.706;2023-07-13T04:42:57;19.10;86.60
4433;DHT22;2229;48.708;9.706;2023-07-13T04:45:26;19.10;86.70
4433;DHT22;2229;48.708;9.706;2023-07-13T04:47:53;19.20;86.90
4433;DHT22;2229;48.708;9.706;2023-07-13T04:50:21;19.20;86.80
4433;DHT22;2229;48.708;9.706;2023-07-13T04:52:49;19.20;86.80
4433;DHT22;2229;48.708;9.706;2023-07-13T04:55:17;19.30;86.70
4433;DHT22;2229;48.708;9.706;2023-07-13T04:57:45;19.30;86.20
4433;DHT22;2229;48.708;9.706;2023-07-13T05:00:13;19.40;85.60
4433;DHT22;2229;48.708;9.706;2023-07-13T05:02:43;19.40;84.90
4433;DHT22;2229;48.708;9.706;2023-07-13T05:05:11;19.40;84.10
4433;DHT22;2229;48.708;9.706;2023-07-13T05:07:38;19.50;83.70
4433;DHT22;2229;48.708;9.706;2023-07-13T05:10:06;19.50;83.20
4433;DHT22;2229;48.708;9.706;2023-07-13T05:12:33;19.60;82.90
4433;DHT22;2229;48.708;9.706;2023-07-13T05:15:01;19.60;82.70
4433;DHT22;2229;48.708;9.706;2023-07-13T05:17:29;19.60;82.40
4433;DHT22;2229;48.708;9.706;2023-07-13T05:19:58;19.60;82.10
4433;DHT22;2229;48.708;9.706;2023-07-13T05:22:26;19.70;82.10
4433;DHT22;2229;48.708;9.706;2023-07-13T05:24:53;19.70;82.00
4433;DHT22;2229;48.708;9.706;2023-07-13T05:27:20;19.70;81.70
4433;DHT22;2229;48.708;9.706;2023-07-13T05:29:48;19.80;81.60
4433;DHT22;2229;48.708;9.706;2023-07-13T05:32:17;19.80;81.20
4433;DHT22;2229;48.708;9.706;2023-07-13T05:34:45;19.80;80.90
4433;DHT22;2229;48.708;9.706;2023-07-13T05:37:13;19.80;80.60
4433;DHT22;2229;48.708;9.706;2023-07-13T05:39:40;19.90;80.40
4433;DHT22;2229;48.708;9.706;2023-07-13T05:42:08;19.90;80.40
4433;DHT22;2229;48.708;9.706;2023-07-13T05:44:35;19.90;80.20
4433;DHT22;2229;48.708;9.706;2023-07-13T05:47:03;20.00;80.30
4433;DHT22;2229;48.708;9.706;2023-07-13T05:49:30;20.00;80.10
4433;DHT22;2229;48.708;9.706;2023-07-13T05:51:57;20.10;80.00
4433;DHT22;2229;48.708;9.706;2023-07-13T05:54:26;20.10;80.00
4433;DHT22;2229;48.708;9.706;2023-07-13T05:56:53;20.10;80.10
4433;DHT22;2229;48.708;9.706;2023-07-13T05:59:21;20.20;80.40
4433;DHT22;2229;48.708;9.706;2023-07-13T06:01:49;20.30;80.40
4433;DHT22;2229;48.708;9.706;2023-07-13T06:04:18;20.30;80.50
4433;DHT22;2229;48.708;9.706;2023-07-13T06:06:46;20.30;80.70
4433;DHT22;2229;48.708;9.706;2023-07-13T06:09:13;20.40;80.50
4433;DHT22;2229;48.708;9.706;2023-07-13T06:11:42;20.50;80.50
4433;DHT22;2229;48.708;9.706;2023-07-13T06:14:10;20.60;79.80
4433;DHT22;2229;48.708;9.706;2023-07-13T06:16:37;20.60;79.10
4433;DHT22;2229;48.708;9.706;2023-07-13T06:19:04;20.70;78.70
4433;DHT22;2229;48.708;9.706;2023-07-13T06:21:31;20.70;78.10
4433;DHT22;2229;48.708;9.706;2023-07-13T06:23:59;20.70;77.20
4433;DHT22;2229;48.708;9.706;2023-07-13T06:26:27;20.70;77.20
4433;DHT22;2229;48.708;9.706;2023-07-13T06:28:56;20.70;77.30
4433;DHT22;2229;48.708;9.706;2023-07-13T06:31:24;20.70;76.30
4433;DHT22;2229;48.708;9.706;2023-07-13T06:33:51;20.80;75.50
4433;DHT22;2229;48.708;9.706;2023-07-13T06:36:19;20.90;75.00
4433;DHT22;2229;48.708;9.706;2023-07-13T06:38:46;20.90;75.00
4433;DHT22;2229;48.708;9.706;2023-07-13T06:41:13;20.90;75.40
4433;DHT22;2229;48.708;9.706;2023-07-13T06:43:40;21.00;76.10
4433;DHT22;2229;48.708;9.706;2023-07-13T06:46:09;21.00;75.30
4433;DHT22;2229;48.708;9.706;2023-07-13T06:48:37;21.10;74.80
4433;DHT22;2229;48.708;9.706;2023-07-13T06:51:04;21.20;74.50
4433;DHT22;2229;48.708;9.706;2023-07-13T06:53:31;21.30;73.70
4433;DHT22;2229;48.708;9.706;2023-07-13T06:55:59;21.50;73.40
4433;DHT22;2229;48.708;9.706;2023-07-13T06:58:26;21.60;73.40
4433;DHT22;2229;48.708;9.706;2023-07-13T07:00:53;21.70;72.90
4433;DHT22;2229;48.708;9.706;2023-07-13T07:03:22;21.80;72.50
4433;DHT22;2229;48.708;9.706;2023-07-13T07:05:49;21.90;72.40
4433;DHT22;2229;48.708;9.706;2023-07-13T07:08:16;21.90;72.60
4433;DHT22;2229;48.708;9.706;2023-07-13T07:10:43;21.90;71.90
4433;DHT22;2229;48.708;9.706;2023-07-13T07:13:11;21.90;72.30
4433;DHT22;2229;48.708;9.706;2023-07-13T07:15:38;21.90;72.30
4433;DHT22;2229;48.708;9.706;2023-07-13T07:18:06;21.80;71.90
4433;DHT22;2229;48.708;9.706;2023-07-13T07:20:35;21.80;72.00
4433;DHT22;2229;48.708;9.706;2023-07-13T07:23:02;21.70;71.30
4433;DHT22;2229;48.708;9.706;2023-07-13T07:25:29;21.70;71.20
4433;DHT22;2229;48.708;9.706;2023-07-13T07:27:57;21.70;71.50
4433;DHT22;2229;48.708;9.706;2023-07-13T07:30:25;21.70;71.50
4433;DHT22;2229;48.708;9.706;2023-07-13T07:32:52;21.70;71.50
4433;DHT22;2229;48.708;9.706;2023-07-13T07:35:19;21.90;70.80
4433;DHT22;2229;48.708;9.706;2023-07-13T07:37:47;22.00;70.00
4433;DHT22;2229;48.708;9.706;2023-07-13T07:40:15;22.10;69.50
4433;DHT22;2229;48.708;9.706;2023-07-13T07:42:42;22.20;68.90
4433;DHT22;2229;48.708;9.706;2023-07-13T07:45:10;22.30;69.10
4433;DHT22;2229;48.708;9.706;2023-07-13T07:47:37;22.50;69.50
4433;DHT22;2229;48.708;9.706;2023-07-13T07:50:05;22.70;68.90
4433;DHT22;2229;48.708;9.706;2023-07-13T07:52:34;22.90;67.90
4433;DHT22;2229;48.708;9.706;2023-07-13T07:55:04;23.10;66.90
4433;DHT22;2229;48.708;9.706;2023-07-13T07:57:32;23.20;66.50
4433;DHT22;2229;48.708;9.706;2023-07-13T08:00:00;23.30;65.90
4433;DHT22;2229;48.708;9.706;2023-07-13T08:02:28;23.40;65.90
4433;DHT22;2229;48.708;9.706;2023-07-13T08:04:55;23.50;65.10
4433;DHT22;2229;48.708;9.706;2023-07-13T08:07:22;23.60;64.30
4433;DHT22;2229;48.708;9.706;2023-07-13T08:09:52;23.70;64.70
4433;DHT22;2229;48.708;9.706;2023-07-13T08:12:20;23.80;64.70
4433;DHT22;2229;48.708;9.706;2023-07-13T08:14:50;23.90;64.10
4433;DHT22;2229;48.708;9.706;2023-07-13T08:17:19;24.10;64.10
4433;DHT22;2229;48.708;9.706;2023-07-13T08:19:46;24.30;63.40
4433;DHT22;2229;48.708;9.706;2023-07-13T08:22:13;24.40;63.60
4433;DHT22;2229;48.708;9.706;2023-07-13T08:24:41;24.60;62.50
4433;DHT22;2229;48.708;9.706;2023-07-13T08:27:09;24.70;62.30
4433;DHT22;2229;48.708;9.706;2023-07-13T08:29:39;24.90;61.90
4433;DHT22;2229;48.708;9.706;2023-07-13T08:32:07;25.10;61.70
4433;DHT22;2229;48.708;9.706;2023-07-13T08:34:36;25.20;61.20
4433;DHT22;2229;48.708;9.706;2023-07-13T08:37:04;25.40;60.80
4433;DHT22;2229;48.708;9.706;2023-07-13T08:39:32;25.50;59.60
4433;DHT22;2229;48.708;9.706;2023-07-13T08:42:03;25.60;59.30
4433;DHT22;2229;48.708;9.706;2023-07-13T08:44:44;25.70;59.30
4433;DHT22;2229;48.708;9.706;2023-07-13T08:47:17;25.80;58.90
4433;DHT22;2229;48.708;9.706;2023-07-13T08:49:46;25.80;58.90
4433;DHT22;2229;48.708;9.706;2023-07-13T08:52:20;25.70;58.30
4433;DHT22;2229;48.708;9.706;2023-07-13T08:54:50;25.70;58.20
4433;DHT22;2229;48.708;9.706;2023-07-13T08:57:21;25.60;58.20
4433;DHT22;2229;48.708;9.706;2023-07-13T08:59:51;25.50;58.40
4433;DHT22;2229;48.708;9.706;2023-07-13T09:02:26;25.40;57.50
4433;DHT22;2229;48.708;9.706;2023-07-13T09:04:56;25.30;57.00
4433;DHT22;2229;48.708;9.706;2023-07-13T09:07:48;25.10;56.80
4433;DHT22;2229;48.708;9.706;2023-07-13T09:10:23;25.10;57.20
4433;DHT22;2229;48.708;9.706;2023-07-13T09:13:01;25.20;57.60
4433;DHT22;2229;48.708;9.706;2023-07-13T09:15:41;25.20;57.20
4433;DHT22;2229;48.708;9.706;2023-07-13T09:18:14;25.30;57.40
4433;DHT22;2229;48.708;9.706;2023-07-13T09:20:48;25.50;57.60
4433;DHT22;2229;48.708;9.706;2023-07-13T09:23:19;25.60;57.50
4433;DHT22;2229;48.708;9.706;2023-07-13T09:25:49;25.70;57.20
4433;DHT22;2229;48.708;9.706;2023-07-13T09:28:23;25.70;56.90
4433;DHT22;2229;48.708;9.706;2023-07-13T09:30:58;25.70;56.80
4433;DHT22;2229;48.708;9.706;2023-07-13T09:33:27;25.80;57.40
4433;DHT22;2229;48.708;9.706;2023-07-13T09:35:56;25.90;56.50
4433;DHT22;2229;48.708;9.706;2023-07-13T09:38:25;26.00;56.30
4433;DHT22;2229;48.708;9.706;2023-07-13T09:41:02;26.10;55.90
4433;DHT22;2229;48.708;9.706;2023-07-13T09:43:35;26.10;55.70
4433;DHT22;2229;48.708;9.706;2023-07-13T09:46:03;26.00;55.70
4433;DHT22;2229;48.708;9.706;2023-07-13T09:48:35;25.90;55.80
4433;DHT22;2229;48.708;9.706;2023-07-13T09:51:09;25.90;56.20
4433;DHT22;2229;48.708;9.706;2023-07-13T09:53:41;26.00;55.70
4433;DHT22;2229;48.708;9.706;2023-07-13T09:56:20;26.10;55.30
4433;DHT22;2229;48.708;9.706;2023-07-13T09:58:47;26.20;54.90
4433;DHT22;2229;48.708;9.706;2023-07-13T10:01:31;26.20;54.50
4433;DHT22;2229;48.708;9.706;2023-07-13T10:03:59;26.30;54.80
4433;DHT22;2229;48.708;9.706;2023-07-13T10:06:26;26.30;54.40
4433;DHT22;2229;48.708;9.706;2023-07-13T10:08:56;26.20;53.90
4433;DHT22;2229;48.708;9.706;2023-07-13T10:11:26;26.20;54.00
4433;DHT22;2229;48.708;9.706;2023-07-13T10:13:57;26.30;53.90
4433;DHT22;2229;48.708;9.706;2023-07-13T10:16:28;26.50;54.50
4433;DHT22;2229;48.708;9.706;2023-07-13T10:19:00;26.60;54.30
4433;DHT22;2229;48.708;9.706;2023-07-13T10:21:32;26.80;53.40
4433;DHT22;2229;48.708;9.706;2023-07-13T10:24:05;27.00;52.90
4433;DHT22;2229;48.708;9.706;2023-07-13T10:26:34;27.30;53.20
4433;DHT22;2229;48.708;9.706;2023-07-13T10:29:08;27.40;53.00
4433;DHT22;2229;48.708;9.706;2023-07-13T10:31:40;27.60;52.40
4433;DHT22;2229;48.708;9.706;2023-07-13T10:34:09;27.60;52.00
4433;DHT22;2229;48.708;9.706;2023-07-13T10:36:40;27.70;52.10
4433;DHT22;2229;48.708;9.706;2023-07-13T10:39:15;27.70;52.20
4433;DHT22;2229;48.708;9.706;2023-07-13T10:41:49;27.60;52.10
4433;DHT22;2229;48.708;9.706;2023-07-13T10:44:21;27.50;52.30
4433;DHT22;2229;48.708;9.706;2023-07-13T10:46:58;27.50;52.80
4433;DHT22;2229;48.708;9.706;2023-07-13T10:49:28;27.60;52.10
4433;DHT22;2229;48.708;9.706;2023-07-13T10:51:56;27.70;51.40
4433;DHT22;2229;48.708;9.706;2023-07-13T10:54:28;27.80;51.80
4433;DHT22;2229;48.708;9.706;2023-07-13T10:57:16;27.90;52.30
4433;DHT22;2229;48.708;9.706;2023-07-13T10:59:47;28.10;51.70
4433;DHT22;2229;48.708;9.706;2023-07-13T11:02:23;28.00;51.20
4433;DHT22;2229;48.708;9.706;2023-07-13T11:04:53;27.80;50.60
4433;DHT22;2229;48.708;9.706;2023-07-13T11:07:23;27.70;51.60
4433;DHT22;2229;48.708;9.706;2023-07-13T11:09:53;27.70;51.60
4433;DHT22;2229;48.708;9.706;2023-07-13T11:12:52;27.70;51.80
4433;DHT22;2229;48.708;9.706;2023-07-13T11:15:42;27.90;51.80
4433;DHT22;2229;48.708;9.706;2023-07-13T11:18:22;28.20;51.30
4433;DHT22;2229;48.708;9.706;2023-07-13T11:20:51;28.40;51.30
4433;DHT22;2229;48.708;9.706;2023-07-13T11:23:27;28.40;51.00
4433;DHT22;2229;48.708;9.706;2023-07-13T11:25:56;28.30;50.00
4433;DHT22;2229;48.708;9.706;2023-07-13T11:28:25;28.30;50.30
4433;DHT22;2229;48.708;9.706;2023-07-13T11:31:13;28.30;50.70
4433;DHT22;2229;48.708;9.706;2023-07-13T11:34:01;28.40;51.00
4433;DHT22;2229;48.708;9.706;2023-07-13T11:36:38;28.60;50.70
4433;DHT22;2229;48.708;9.706;2023-07-13T11:39:17;28.80;50.40
4433;DHT22;2229;48.708;9.706;2023-07-13T11:41:50;29.00;50.20
4433;DHT22;2229;48.708;9.706;2023-07-13T11:44:19;29.10;49.90
4433;DHT22;2229;48.708;9.706;2023-07-13T11:46:48;29.20;49.70
4433;DHT22;2229;48.708;9.706;2023-07-13T11:49:20;29.30;49.60
4433;DHT22;2229;48.708;9.706;2023-07-13T11:51:48;29.30;49.10
4433;DHT22;2229;48.708;9.706;2023-07-13T11:54:25;29.10;49.00
4433;DHT22;2229;48.708;9.706;2023-07-13T11:56:54;29.10;48.90
4433;DHT22;2229;48.708;9.706;2023-07-13T11:59:22;29.10;48.60
4433;DHT22;2229;48.708;9.706;2023-07-13T12:01:52;29.20;48.70
4433;DHT22;2229;48.708;9.706;2023-07-13T12:04:25;29.20;48.90
4433;DHT22;2229;48.708;9.706;2023-07-13T12:06:58;29.20;49.20
4433;DHT22;2229;48.708;9.706;2023-07-13T12:09:30;29.20;49.00
4433;DHT22;2229;48.708;9.706;2023-07-13T12:11:57;29.20;48.60
4433;DHT22;2229;48.708;9.706;2023-07-13T12:14:26;29.10;48.70
4433;DHT22;2229;48.708;9.706;2023-07-13T12:16:55;29.10;48.80
4433;DHT22;2229;48.708;9.706;2023-07-13T12:19:26;29.10;49.00
4433;DHT22;2229;48.708;9.706;2023-07-13T12:21:56;29.10;48.40
4433;DHT22;2229;48.708;9.706;2023-07-13T12:24:25;29.10;48.10
4433;DHT22;2229;48.708;9.706;2023-07-13T12:26:55;29.20;48.60
4433;DHT22;2229;48.708;9.706;2023-07-13T12:29:26;29.20;49.00
4433;DHT22;2229;48.708;9.706;2023-07-13T12:31:54;29.20;49.20
4433;DHT22;2229;48.708;9.706;2023-07-13T12:34:25;29.20;48.80
4433;DHT22;2229;48.708;9.706;2023-07-13T12:36:55;29.20;48.90
4433;DHT22;2229;48.708;9.706;2023-07-13T12:39:33;29.20;49.00
4433;DHT22;2229;48.708;9.706;2023-07-13T12:42:18;29.20;49.00
4433;DHT22;2229;48.708;9.706;2023-07-13T12:44:46;29.10;48.60
4433;DHT22;2229;48.708;9.706;2023-07-13T12:47:15;28.90;48.40
4433;DHT22;2229;48.708;9.706;2023-07-13T12:49:48;28.90;49.40
4433;DHT22;2229;48.708;9.706;2023-07-13T12:52:20;28.90;49.20
4433;DHT22;2229;48.708;9.706;2023-07-13T12:54:55;28.90;49.50
4433;DHT22;2229;48.708;9.706;2023-07-13T12:57:23;28.80;49.30
4433;DHT22;2229;48.708;9.706;2023-07-13T12:59:53;28.70;49.40
4433;DHT22;2229;48.708;9.706;2023-07-13T13:02:28;28.70;49.80
4433;DHT22;2229;48.708;9.706;2023-07-13T13:04:58;28.60;50.00
4433;DHT22;2229;48.708;9.706;2023-07-13T13:07:25;28.50;50.20
4433;DHT22;2229;48.708;9.706;2023-07-13T13:09:53;28.40;50.30
4433;DHT22;2229;48.708;9.706;2023-07-13T13:12:22;28.20;49.80
4433;DHT22;2229;48.708;9.706;2023-07-13T13:14:50;28.00;50.10
4433;DHT22;2229;48.708;9.706;2023-07-13T13:17:21;27.80;50.30
4433;DHT22;2229;48.708;9.706;2023-07-13T13:19:50;27.60;50.40
4433;DHT22;2229;48.708;9.706;2023-07-13T13:22:20;27.50;50.60
4433;DHT22;2229;48.708;9.706;2023-07-13T13:24:47;27.40;51.20
4433;DHT22;2229;48.708;9.706;2023-07-13T13:27:20;27.40;51.10
4433;DHT22;2229;48.708;9.706;2023-07-13T13:29:49;27.50;51.10
4433;DHT22;2229;48.708;9.706;2023-07-13T13:32:18;27.60;50.90
4433;DHT22;2229;48.708;9.706;2023-07-13T13:34:46;27.70;51.20
4433;DHT22;2229;48.708;9.706;2023-07-13T13:37:18;27.90;51.30
4433;DHT22;2229;48.708;9.706;2023-07-13T13:39:47;28.10;51.10
4433;DHT22;2229;48.708;9.706;2023-07-13T13:42:15;28.30;51.10
4433;DHT22;2229;48.708;9.706;2023-07-13T13:44:42;28.40;51.50
4433;DHT22;2229;48.708;9.706;2023-07-13T13:47:22;28.60;50.90
4433;DHT22;2229;48.708;9.706;2023-07-13T13:49:53;28.70;50.70
4433;DHT22;2229;48.708;9.706;2023-07-13T13:52:20;28.80;50.10
4433;DHT22;2229;48.708;9.706;2023-07-13T13:54:49;28.90;50.30
4433;DHT22;2229;48.708;9.706;2023-07-13T13:57:22;28.90;49.90
4433;DHT22;2229;48.708;9.706;2023-07-13T13:59:50;29.00;49.30
4433;DHT22;2229;48.708;9.706;2023-07-13T14:02:25;28.90;49.10
4433;DHT22;2229;48.708;9.706;2023-07-13T14:04:55;28.90;49.70
4433;DHT22;2229;48.708;9.706;2023-07-13T14:07:23;28.80;49.70
4433;DHT22;2229;48.708;9.706;2023-07-13T14:09:54;28.60;49.60
4433;DHT22;2229;48.708;9.706;2023-07-13T14:12:23;28.50;49.80
4433;DHT22;2229;48.708;9.706;2023-07-13T14:14:51;28.30;49.80
4433;DHT22;2229;48.708;9.706;2023-07-13T14:17:21;28.20;50.50
4433;DHT22;2229;48.708;9.706;2023-07-13T14:19:50;28.10;50.40
4433;DHT22;2229;48.708;9.706;2023-07-13T14:22:23;28.20;50.10
4433;DHT22;2229;48.708;9.706;2023-07-13T14:24:53;28.30;49.90
4433;DHT22;2229;48.708;9.706;2023-07-13T14:27:20;28.40;50.00
4433;DHT22;2229;48.708;9.706;2023-07-13T14:29:48;28.50;50.10
4433;DHT22;2229;48.708;9.706;2023-07-13T14:32:15;28.50;49.70
4433;DHT22;2229;48.708;9.706;2023-07-13T14:34:43;28.50;49.60
4433;DHT22;2229;48.708;9.706;2023-07-13T14:37:13;28.40;49.60
4433;DHT22;2229;48.708;9.706;2023-07-13T14:39:44;28.20;49.70
4433;DHT22;2229;48.708;9.706;2023-07-13T14:42:13;28.10;49.90
4433;DHT22;2229;48.708;9.706;2023-07-13T14:44:40;28.20;49.80
4433;DHT22;2229;48.708;9.706;2023-07-13T14:47:08;28.30;49.30
4433;DHT22;2229;48.708;9.706;2023-07-13T14:49:39;28.40;49.40
4433;DHT22;2229;48.708;9.706;2023-07-13T14:52:11;28.60;49.00
4433;DHT22;2229;48.708;9.706;2023-07-13T14:54:39;28.70;49.10
4433;DHT22;2229;48.708;9.706;2023-07-13T14:57:10;28.80;48.50
4433;DHT22;2229;48.708;9.706;2023-07-13T14:59:39;28.80;48.30
4433;DHT22;2229;48.708;9.706;2023-07-13T15:02:15;28.90;48.50
4433;DHT22;2229;48.708;9.706;2023-07-13T15:04:44;28.90;48.10
4433;DHT22;2229;48.708;9.706;2023-07-13T15:07:11;28.90;48.00
4433;DHT22;2229;48.708;9.706;2023-07-13T15:09:39;28.70;47.70
4433;DHT22;2229;48.708;9.706;2023-07-13T15:12:07;28.60;47.60
4433;DHT22;2229;48.708;9.706;2023-07-13T15:14:34;28.40;47.70
4433;DHT22;2229;48.708;9.706;2023-07-13T15:17:03;28.30;47.70
4433;DHT22;2229;48.708;9.706;2023-07-13T15:19:31;28.10;47.70
4433;DHT22;2229;48.708;9.706;2023-07-13T15:21:59;28.00;47.90
4433;DHT22;2229;48.708;9.706;2023-07-13T15:24:26;27.90;48.00
4433;DHT22;2229;48.708;9.706;2023-07-13T15:26:53;28.10;48.50
4433;DHT22;2229;48.708;9.706;2023-07-13T15:29:21;28.20;48.70
4433;DHT22;2229;48.708;9.706;2023-07-13T15:31:49;28.20;48.30
4433;DHT22;2229;48.708;9.706;2023-07-13T15:34:21;28.30;48.40
4433;DHT22;2229;48.708;9.706;2023-07-13T15:36:52;28.30;48.50
4433;DHT22;2229;48.708;9.706;2023-07-13T15:39:19;28.40;48.60
4433;DHT22;2229;48.708;9.706;2023-07-13T15:41:46;28.30;48.00
4433;DHT22;2229;48.708;9.706;2023-07-13T15:44:24;28.20;48.00
4433;DHT22;2229;48.708;9.706;2023-07-13T15:46:52;28.20;48.10
4433;DHT22;2229;48.708;9.706;2023-07-13T15:49:21;28.20;48.00
4433;DHT22;2229;48.708;9.706;2023-07-13T15:51:48;28.30;48.10
4433;DHT22;2229;48.708;9.706;2023-07-13T15:54:17;28.40;48.10
4433;DHT22;2229;48.708;9.706;2023-07-13T15:56:50;28.40;47.90
4433;DHT22;2229;48.708;9.706;2023-07-13T15:59:18;28.40;48.10
4433;DHT22;2229;48.708;9.706;2023-07-13T16:01:46;28.40;48.30
4433;DHT22;2229;48.708;9.706;2023-07-13T16:04:15;28.40;48.20
4433;DHT22;2229;48.708;9.706;2023-07-13T16:06:47;28.30;47.70
4433;DHT22;2229;48.708;9.706;2023-07-13T16:09:19;28.20;47.70
4433;DHT22;2229;48.708;9.706;2023-07-13T16:11:49;28.00;47.80
4433;DHT22;2229;48.708;9.706;2023-07-13T16:14:16;27.90;48.00
4433;DHT22;2229;48.708;9.706;2023-07-13T16:16:44;27.80;48.20
4433;DHT22;2229;48.708;9.706;2023-07-13T16:19:12;27.80;48.20